Terminal Aerodrome Forecast
Issued by NWS

Home | Current Version | Previous Version | Graphics & Text | Print | Product List | Glossary On
Versions: 1 2 3 4 5 6 7 8 9 10 11 12 13 14 15 16 17 18 19
139
FTUS43 KOAX 230556
TAFCDR
TAF
KCDR 230556Z 2306/2406 05012KT P6SM VCSH BKN025 OVC050
     FM230700 05014KT 2SM -SN SCT007 OVC010
     FM231000 05015G22KT 1/2SM SN FG OVC006
     FM231700 06017G28KT 1/4SM SN FG OVC002
     FM240000 04014KT 1SM -SN BR OVC004=

USA.gov is the U.S. government's official web portal to all federal, state and local government web resources and services.